sensor_id;sensor_type;location;lat;lon;timestamp;P1;durP1;ratioP1;P2;durP2;ratioP2
21754;SDS011;11039;50.028;19.938;2022-12-13T00:01:13;1.42;;;0.88;;
21754;SDS011;11039;50.028;19.938;2022-12-13T00:03:40;1.08;;;0.90;;
21754;SDS011;11039;50.028;19.938;2022-12-13T00:06:06;1.35;;;0.90;;
21754;SDS011;11039;50.028;19.938;2022-12-13T00:08:32;1.20;;;0.90;;
21754;SDS011;11039;50.028;19.938;2022-12-13T00:11:09;1.50;;;0.98;;
21754;SDS011;11039;50.028;19.938;2022-12-13T00:13:36;1.60;;;1.00;;
21754;SDS011;11039;50.028;19.938;2022-12-13T00:16:04;1.55;;;1.10;;
21754;SDS011;11039;50.028;19.938;2022-12-13T00:18:30;1.52;;;1.00;;
21754;SDS011;11039;50.028;19.938;2022-12-13T00:20:56;1.55;;;0.82;;
21754;SDS011;11039;50.028;19.938;2022-12-13T00:23:22;1.52;;;1.10;;
21754;SDS011;11039;50.028;19.938;2022-12-13T00:25:49;0.85;;;0.63;;
21754;SDS011;11039;50.028;19.938;2022-12-13T00:28:15;1.58;;;1.00;;
21754;SDS011;11039;50.028;19.938;2022-12-13T00:30:41;2.97;;;0.90;;
21754;SDS011;11039;50.028;19.938;2022-12-13T00:33:07;1.10;;;0.82;;
21754;SDS011;11039;50.028;19.938;2022-12-13T00:35:38;1.35;;;0.80;;
21754;SDS011;11039;50.028;19.938;2022-12-13T00:38:04;0.90;;;0.80;;
21754;SDS011;11039;50.028;19.938;2022-12-13T00:40:30;1.33;;;1.00;;
21754;SDS011;11039;50.028;19.938;2022-12-13T00:42:56;2.05;;;1.00;;
21754;SDS011;11039;50.028;19.938;2022-12-13T00:45:22;1.05;;;0.80;;
21754;SDS011;11039;50.028;19.938;2022-12-13T00:47:49;1.15;;;0.80;;
21754;SDS011;11039;50.028;19.938;2022-12-13T00:50:15;0.95;;;0.80;;
21754;SDS011;11039;50.028;19.938;2022-12-13T00:52:41;1.42;;;0.95;;
21754;SDS011;11039;50.028;19.938;2022-12-13T00:55:07;1.25;;;0.93;;
21754;SDS011;11039;50.028;19.938;2022-12-13T00:57:33;1.30;;;0.90;;
21754;SDS011;11039;50.028;19.938;2022-12-13T00:59:59;1.23;;;0.70;;
21754;SDS011;11039;50.028;19.938;2022-12-13T01:02:26;1.65;;;0.98;;
21754;SDS011;11039;50.028;19.938;2022-12-13T01:04:52;1.25;;;0.80;;
21754;SDS011;11039;50.028;19.938;2022-12-13T01:07:18;1.17;;;0.80;;
21754;SDS011;11039;50.028;19.938;2022-12-13T01:09:44;1.70;;;0.80;;
21754;SDS011;11039;50.028;19.938;2022-12-13T01:12:10;1.23;;;0.77;;
21754;SDS011;11039;50.028;19.938;2022-12-13T01:14:36;2.97;;;0.80;;
21754;SDS011;11039;50.028;19.938;2022-12-13T01:17:03;1.30;;;0.85;;
21754;SDS011;11039;50.028;19.938;2022-12-13T01:19:30;1.05;;;0.68;;
21754;SDS011;11039;50.028;19.938;2022-12-13T01:21:57;0.88;;;0.80;;
21754;SDS011;11039;50.028;19.938;2022-12-13T01:24:24;1.25;;;0.68;;
21754;SDS011;11039;50.028;19.938;2022-12-13T01:26:50;1.10;;;0.90;;
21754;SDS011;11039;50.028;19.938;2022-12-13T01:29:17;0.80;;;0.70;;
21754;SDS011;11039;50.028;19.938;2022-12-13T01:31:43;1.00;;;0.80;;
21754;SDS011;11039;50.028;19.938;2022-12-13T01:34:10;1.40;;;1.00;;
21754;SDS011;11039;50.028;19.938;2022-12-13T01:36:36;1.00;;;0.65;;
21754;SDS011;11039;50.028;19.938;2022-12-13T01:39:02;1.58;;;0.82;;
21754;SDS011;11039;50.028;19.938;2022-12-13T01:41:28;0.93;;;0.70;;
21754;SDS011;11039;50.028;19.938;2022-12-13T01:43:56;1.15;;;0.90;;
21754;SDS011;11039;50.028;19.938;2022-12-13T01:46:25;1.40;;;0.90;;
21754;SDS011;11039;50.028;19.938;2022-12-13T01:51:18;1.00;;;0.88;;
21754;SDS011;11039;50.028;19.938;2022-12-13T01:53:46;0.90;;;0.80;;
21754;SDS011;11039;50.028;19.938;2022-12-13T01:56:15;1.00;;;0.90;;
21754;SDS011;11039;50.028;19.938;2022-12-13T01:58:43;1.45;;;0.88;;
21754;SDS011;11039;50.028;19.938;2022-12-13T02:01:10;1.00;;;0.90;;
21754;SDS011;11039;50.028;19.938;2022-12-13T02:03:36;1.05;;;0.93;;
21754;SDS011;11039;50.028;19.938;2022-12-13T02:06:04;1.30;;;1.00;;
21754;SDS011;11039;50.028;19.938;2022-12-13T02:08:31;1.20;;;0.90;;
21754;SDS011;11039;50.028;19.938;2022-12-13T02:10:57;1.27;;;1.00;;
21754;SDS011;11039;50.028;19.938;2022-12-13T02:13:24;2.88;;;0.93;;
21754;SDS011;11039;50.028;19.938;2022-12-13T02:15:57;1.23;;;1.00;;
21754;SDS011;11039;50.028;19.938;2022-12-13T02:18:37;0.73;;;0.73;;
21754;SDS011;11039;50.028;19.938;2022-12-13T02:21:12;1.23;;;0.90;;
21754;SDS011;11039;50.028;19.938;2022-12-13T02:29:20;1.65;;;0.90;;
21754;SDS011;11039;50.028;19.938;2022-12-13T02:32:08;1.55;;;0.90;;
21754;SDS011;11039;50.028;19.938;2022-12-13T02:34:39;1.38;;;0.93;;
21754;SDS011;11039;50.028;19.938;2022-12-13T02:37:22;1.20;;;0.82;;
21754;SDS011;11039;50.028;19.938;2022-12-13T02:39:55;0.95;;;0.73;;
21754;SDS011;11039;50.028;19.938;2022-12-13T02:42:27;1.50;;;1.05;;
21754;SDS011;11039;50.028;19.938;2022-12-13T02:45:09;1.08;;;0.90;;
21754;SDS011;11039;50.028;19.938;2022-12-13T02:47:37;0.90;;;0.70;;
21754;SDS011;11039;50.028;19.938;2022-12-13T02:50:05;1.23;;;1.00;;
21754;SDS011;11039;50.028;19.938;2022-12-13T02:52:31;1.08;;;0.73;;
21754;SDS011;11039;50.028;19.938;2022-12-13T02:54:58;1.02;;;0.90;;
21754;SDS011;11039;50.028;19.938;2022-12-13T02:57:26;1.13;;;1.02;;
21754;SDS011;11039;50.028;19.938;2022-12-13T02:59:53;1.00;;;0.80;;
21754;SDS011;11039;50.028;19.938;2022-12-13T03:08:14;1.05;;;0.80;;
21754;SDS011;11039;50.028;19.938;2022-12-13T03:10:32;1.50;;;1.02;;
21754;SDS011;11039;50.028;19.938;2022-12-13T03:13:02;1.00;;;0.90;;
21754;SDS011;11039;50.028;19.938;2022-12-13T03:18:19;1.98;;;0.98;;
21754;SDS011;11039;50.028;19.938;2022-12-13T03:20:46;0.80;;;0.70;;
21754;SDS011;11039;50.028;19.938;2022-12-13T03:23:13;1.10;;;1.00;;
21754;SDS011;11039;50.028;19.938;2022-12-13T03:25:39;1.48;;;0.98;;
21754;SDS011;11039;50.028;19.938;2022-12-13T03:28:05;0.88;;;0.88;;
21754;SDS011;11039;50.028;19.938;2022-12-13T03:30:31;1.15;;;0.90;;
21754;SDS011;11039;50.028;19.938;2022-12-13T03:32:58;1.02;;;0.88;;
21754;SDS011;11039;50.028;19.938;2022-12-13T03:35:24;1.00;;;0.77;;
21754;SDS011;11039;50.028;19.938;2022-12-13T03:37:50;1.00;;;0.90;;
21754;SDS011;11039;50.028;19.938;2022-12-13T03:40:17;1.60;;;0.90;;
21754;SDS011;11039;50.028;19.938;2022-12-13T03:42:43;1.23;;;0.98;;
21754;SDS011;11039;50.028;19.938;2022-12-13T03:45:09;1.58;;;1.15;;
21754;SDS011;11039;50.028;19.938;2022-12-13T03:47:35;1.00;;;0.80;;
21754;SDS011;11039;50.028;19.938;2022-12-13T03:50:01;1.40;;;0.77;;
21754;SDS011;11039;50.028;19.938;2022-12-13T03:52:27;1.38;;;1.10;;
21754;SDS011;11039;50.028;19.938;2022-12-13T03:54:53;1.27;;;1.08;;
21754;SDS011;11039;50.028;19.938;2022-12-13T03:57:19;1.30;;;0.90;;
21754;SDS011;11039;50.028;19.938;2022-12-13T03:59:45;1.58;;;1.00;;
21754;SDS011;11039;50.028;19.938;2022-12-13T04:02:11;1.48;;;1.13;;
21754;SDS011;11039;50.028;19.938;2022-12-13T04:04:37;1.48;;;1.10;;
21754;SDS011;11039;50.028;19.938;2022-12-13T04:07:03;1.30;;;1.15;;
21754;SDS011;11039;50.028;19.938;2022-12-13T04:09:29;1.23;;;1.10;;
21754;SDS011;11039;50.028;19.938;2022-12-13T04:11:55;1.15;;;0.88;;
21754;SDS011;11039;50.028;19.938;2022-12-13T04:14:40;1.52;;;1.02;;
21754;SDS011;11039;50.028;19.938;2022-12-13T04:17:06;1.33;;;1.13;;
21754;SDS011;11039;50.028;19.938;2022-12-13T04:19:32;1.20;;;1.10;;
21754;SDS011;11039;50.028;19.938;2022-12-13T04:21:58;0.98;;;0.85;;
21754;SDS011;11039;50.028;19.938;2022-12-13T04:24:24;0.98;;;0.85;;
21754;SDS011;11039;50.028;19.938;2022-12-13T04:26:50;1.60;;;1.10;;
21754;SDS011;11039;50.028;19.938;2022-12-13T04:29:16;1.70;;;1.05;;
21754;SDS011;11039;50.028;19.938;2022-12-13T04:31:42;1.13;;;0.93;;
21754;SDS011;11039;50.028;19.938;2022-12-13T04:34:08;1.10;;;0.93;;
21754;SDS011;11039;50.028;19.938;2022-12-13T04:36:34;1.58;;;1.00;;
21754;SDS011;11039;50.028;19.938;2022-12-13T04:39:00;1.10;;;0.98;;
21754;SDS011;11039;50.028;19.938;2022-12-13T04:41:27;1.63;;;1.00;;
21754;SDS011;11039;50.028;19.938;2022-12-13T04:43:53;1.13;;;0.93;;
21754;SDS011;11039;50.028;19.938;2022-12-13T04:46:20;0.98;;;0.80;;
21754;SDS011;11039;50.028;19.938;2022-12-13T04:48:46;1.45;;;0.98;;
21754;SDS011;11039;50.028;19.938;2022-12-13T04:51:12;0.90;;;0.80;;
21754;SDS011;11039;50.028;19.938;2022-12-13T04:53:39;1.17;;;1.02;;
21754;SDS011;11039;50.028;19.938;2022-12-13T04:56:05;1.20;;;1.10;;
21754;SDS011;11039;50.028;19.938;2022-12-13T04:58:31;1.00;;;0.80;;
21754;SDS011;11039;50.028;19.938;2022-12-13T05:00:57;1.33;;;1.05;;
21754;SDS011;11039;50.028;19.938;2022-12-13T05:03:24;1.40;;;1.20;;
21754;SDS011;11039;50.028;19.938;2022-12-13T05:05:51;1.45;;;0.93;;
21754;SDS011;11039;50.028;19.938;2022-12-13T05:08:17;1.30;;;1.10;;
21754;SDS011;11039;50.028;19.938;2022-12-13T05:10:43;1.50;;;1.10;;
21754;SDS011;11039;50.028;19.938;2022-12-13T05:13:09;1.52;;;1.13;;
21754;SDS011;11039;50.028;19.938;2022-12-13T05:15:35;1.20;;;0.93;;
21754;SDS011;11039;50.028;19.938;2022-12-13T05:18:02;1.67;;;1.20;;
21754;SDS011;11039;50.028;19.938;2022-12-13T05:20:28;1.20;;;1.00;;
21754;SDS011;11039;50.028;19.938;2022-12-13T05:22:55;1.15;;;1.00;;
21754;SDS011;11039;50.028;19.938;2022-12-13T05:25:22;2.80;;;1.08;;
21754;SDS011;11039;50.028;19.938;2022-12-13T05:27:48;1.45;;;1.10;;
21754;SDS011;11039;50.028;19.938;2022-12-13T05:30:14;1.30;;;0.90;;
21754;SDS011;11039;50.028;19.938;2022-12-13T05:32:40;1.63;;;1.00;;
21754;SDS011;11039;50.028;19.938;2022-12-13T05:35:06;1.40;;;1.10;;
21754;SDS011;11039;50.028;19.938;2022-12-13T05:37:32;1.92;;;1.10;;
21754;SDS011;11039;50.028;19.938;2022-12-13T05:39:58;1.70;;;1.10;;
21754;SDS011;11039;50.028;19.938;2022-12-13T05:42:25;1.42;;;1.02;;
21754;SDS011;11039;50.028;19.938;2022-12-13T05:44:51;1.40;;;1.10;;
21754;SDS011;11039;50.028;19.938;2022-12-13T05:47:17;1.52;;;1.13;;
21754;SDS011;11039;50.028;19.938;2022-12-13T05:49:43;1.23;;;0.98;;
21754;SDS011;11039;50.028;19.938;2022-12-13T05:52:16;2.70;;;1.10;;
21754;SDS011;11039;50.028;19.938;2022-12-13T05:54:42;1.50;;;1.05;;
21754;SDS011;11039;50.028;19.938;2022-12-13T05:57:08;1.73;;;1.10;;
21754;SDS011;11039;50.028;19.938;2022-12-13T05:59:34;1.27;;;0.90;;
21754;SDS011;11039;50.028;19.938;2022-12-13T06:02:00;1.17;;;1.00;;
21754;SDS011;11039;50.028;19.938;2022-12-13T06:04:26;1.27;;;0.98;;
21754;SDS011;11039;50.028;19.938;2022-12-13T06:06:53;1.58;;;1.17;;
21754;SDS011;11039;50.028;19.938;2022-12-13T06:09:19;1.10;;;0.80;;
21754;SDS011;11039;50.028;19.938;2022-12-13T06:11:45;1.63;;;1.08;;
21754;SDS011;11039;50.028;19.938;2022-12-13T06:14:11;5.25;;;1.00;;
21754;SDS011;11039;50.028;19.938;2022-12-13T06:16:37;1.38;;;0.93;;
21754;SDS011;11039;50.028;19.938;2022-12-13T06:19:03;1.85;;;1.10;;
21754;SDS011;11039;50.028;19.938;2022-12-13T06:21:30;1.65;;;0.90;;
21754;SDS011;11039;50.028;19.938;2022-12-13T06:23:56;1.58;;;1.00;;
21754;SDS011;11039;50.028;19.938;2022-12-13T06:26:22;2.22;;;1.15;;
21754;SDS011;11039;50.028;19.938;2022-12-13T06:28:48;1.15;;;0.75;;
21754;SDS011;11039;50.028;19.938;2022-12-13T06:31:14;2.30;;;1.10;;
21754;SDS011;11039;50.028;19.938;2022-12-13T06:33:40;2.30;;;1.15;;
21754;SDS011;11039;50.028;19.938;2022-12-13T06:36:07;0.95;;;0.80;;
21754;SDS011;11039;50.028;19.938;2022-12-13T06:38:33;1.60;;;1.15;;
21754;SDS011;11039;50.028;19.938;2022-12-13T06:41:09;2.15;;;1.00;;
21754;SDS011;11039;50.028;19.938;2022-12-13T06:43:35;1.80;;;0.98;;
21754;SDS011;11039;50.028;19.938;2022-12-13T06:46:03;2.10;;;1.23;;
21754;SDS011;11039;50.028;19.938;2022-12-13T06:48:29;2.63;;;1.20;;
21754;SDS011;11039;50.028;19.938;2022-12-13T06:50:58;1.85;;;1.05;;
21754;SDS011;11039;50.028;19.938;2022-12-13T06:53:24;2.03;;;1.20;;
21754;SDS011;11039;50.028;19.938;2022-12-13T06:55:50;3.65;;;1.05;;
21754;SDS011;11039;50.028;19.938;2022-12-13T06:58:16;1.90;;;1.13;;
21754;SDS011;11039;50.028;19.938;2022-12-13T07:00:42;2.05;;;1.38;;
21754;SDS011;11039;50.028;19.938;2022-12-13T07:03:08;2.40;;;1.63;;
21754;SDS011;11039;50.028;19.938;2022-12-13T07:05:39;2.25;;;1.10;;
21754;SDS011;11039;50.028;19.938;2022-12-13T07:08:05;1.85;;;1.23;;
21754;SDS011;11039;50.028;19.938;2022-12-13T07:10:31;1.88;;;1.30;;
21754;SDS011;11039;50.028;19.938;2022-12-13T07:12:57;3.55;;;1.23;;
21754;SDS011;11039;50.028;19.938;2022-12-13T07:15:23;2.55;;;1.10;;
21754;SDS011;11039;50.028;19.938;2022-12-13T07:17:49;2.05;;;1.30;;
21754;SDS011;11039;50.028;19.938;2022-12-13T07:20:16;2.10;;;1.10;;
21754;SDS011;11039;50.028;19.938;2022-12-13T07:22:44;1.48;;;1.10;;
21754;SDS011;11039;50.028;19.938;2022-12-13T07:25:13;1.52;;;1.20;;
21754;SDS011;11039;50.028;19.938;2022-12-13T07:27:39;1.65;;;1.13;;
21754;SDS011;11039;50.028;19.938;2022-12-13T07:30:05;1.27;;;1.00;;
21754;SDS011;11039;50.028;19.938;2022-12-13T07:32:31;1.77;;;1.00;;
21754;SDS011;11039;50.028;19.938;2022-12-13T07:34:57;1.73;;;1.10;;
21754;SDS011;11039;50.028;19.938;2022-12-13T07:37:24;1.52;;;0.95;;
21754;SDS011;11039;50.028;19.938;2022-12-13T07:39:50;1.35;;;1.00;;
21754;SDS011;11039;50.028;19.938;2022-12-13T07:42:16;1.67;;;1.13;;
21754;SDS011;11039;50.028;19.938;2022-12-13T07:44:42;1.75;;;1.05;;
21754;SDS011;11039;50.028;19.938;2022-12-13T07:47:08;1.67;;;1.15;;
21754;SDS011;11039;50.028;19.938;2022-12-13T07:49:34;1.33;;;0.88;;
21754;SDS011;11039;50.028;19.938;2022-12-13T07:52:00;1.67;;;1.20;;
21754;SDS011;11039;50.028;19.938;2022-12-13T07:54:26;1.67;;;1.10;;
21754;SDS011;11039;50.028;19.938;2022-12-13T07:56:52;1.20;;;1.08;;
21754;SDS011;11039;50.028;19.938;2022-12-13T07:59:18;1.65;;;0.93;;
21754;SDS011;11039;50.028;19.938;2022-12-13T08:01:44;1.50;;;1.00;;
21754;SDS011;11039;50.028;19.938;2022-12-13T08:04:10;1.17;;;1.08;;
21754;SDS011;11039;50.028;19.938;2022-12-13T08:06:36;1.70;;;1.17;;
21754;SDS011;11039;50.028;19.938;2022-12-13T08:09:04;1.70;;;1.10;;
21754;SDS011;11039;50.028;19.938;2022-12-13T08:11:30;1.85;;;1.30;;
21754;SDS011;11039;50.028;19.938;2022-12-13T08:13:56;1.35;;;1.00;;
21754;SDS011;11039;50.028;19.938;2022-12-13T08:16:22;2.08;;;1.00;;
21754;SDS011;11039;50.028;19.938;2022-12-13T08:18:48;2.15;;;1.38;;
21754;SDS011;11039;50.028;19.938;2022-12-13T08:21:14;2.63;;;1.50;;
21754;SDS011;11039;50.028;19.938;2022-12-13T08:23:41;3.22;;;1.92;;
21754;SDS011;11039;50.028;19.938;2022-12-13T08:26:07;3.17;;;2.00;;
21754;SDS011;11039;50.028;19.938;2022-12-13T08:28:33;2.78;;;1.65;;
21754;SDS011;11039;50.028;19.938;2022-12-13T08:31:02;2.47;;;1.70;;
21754;SDS011;11039;50.028;19.938;2022-12-13T08:33:28;2.58;;;1.58;;
21754;SDS011;11039;50.028;19.938;2022-12-13T08:35:54;2.55;;;1.35;;
21754;SDS011;11039;50.028;19.938;2022-12-13T08:38:20;2.20;;;1.30;;
21754;SDS011;11039;50.028;19.938;2022-12-13T08:40:47;1.85;;;1.20;;
21754;SDS011;11039;50.028;19.938;2022-12-13T08:43:13;1.67;;;1.30;;
21754;SDS011;11039;50.028;19.938;2022-12-13T08:45:39;1.55;;;1.20;;
21754;SDS011;11039;50.028;19.938;2022-12-13T08:48:06;2.03;;;1.50;;
21754;SDS011;11039;50.028;19.938;2022-12-13T08:50:32;2.40;;;1.50;;
21754;SDS011;11039;50.028;19.938;2022-12-13T08:52:58;1.95;;;1.10;;
21754;SDS011;11039;50.028;19.938;2022-12-13T08:55:24;1.85;;;1.05;;
21754;SDS011;11039;50.028;19.938;2022-12-13T08:57:50;1.50;;;1.08;;
21754;SDS011;11039;50.028;19.938;2022-12-13T09:00:16;2.28;;;1.40;;
21754;SDS011;11039;50.028;19.938;2022-12-13T09:02:43;3.88;;;1.33;;
21754;SDS011;11039;50.028;19.938;2022-12-13T09:05:09;1.58;;;1.10;;
21754;SDS011;11039;50.028;19.938;2022-12-13T09:07:36;1.65;;;1.05;;
21754;SDS011;11039;50.028;19.938;2022-12-13T09:10:08;1.40;;;1.10;;
21754;SDS011;11039;50.028;19.938;2022-12-13T09:12:34;2.53;;;1.05;;
21754;SDS011;11039;50.028;19.938;2022-12-13T09:15:00;1.38;;;1.10;;
21754;SDS011;11039;50.028;19.938;2022-12-13T09:17:26;1.60;;;1.10;;
21754;SDS011;11039;50.028;19.938;2022-12-13T09:19:52;2.17;;;0.98;;
21754;SDS011;11039;50.028;19.938;2022-12-13T09:22:18;1.50;;;1.00;;
21754;SDS011;11039;50.028;19.938;2022-12-13T09:24:45;1.25;;;0.80;;
21754;SDS011;11039;50.028;19.938;2022-12-13T09:27:11;1.80;;;1.27;;
21754;SDS011;11039;50.028;19.938;2022-12-13T09:29:37;1.52;;;0.90;;
21754;SDS011;11039;50.028;19.938;2022-12-13T09:32:03;1.65;;;1.10;;
21754;SDS011;11039;50.028;19.938;2022-12-13T09:34:29;1.52;;;1.10;;
21754;SDS011;11039;50.028;19.938;2022-12-13T09:36:56;2.05;;;1.00;;
21754;SDS011;11039;50.028;19.938;2022-12-13T09:39:22;1.70;;;1.13;;
21754;SDS011;11039;50.028;19.938;2022-12-13T09:41:52;1.30;;;1.10;;
21754;SDS011;11039;50.028;19.938;2022-12-13T09:44:22;1.60;;;1.08;;
21754;SDS011;11039;50.028;19.938;2022-12-13T09:46:49;1.60;;;1.00;;
21754;SDS011;11039;50.028;19.938;2022-12-13T09:49:28;1.65;;;1.10;;
21754;SDS011;11039;50.028;19.938;2022-12-13T09:51:56;1.65;;;1.13;;
21754;SDS011;11039;50.028;19.938;2022-12-13T09:54:23;1.80;;;1.05;;
21754;SDS011;11039;50.028;19.938;2022-12-13T09:56:49;1.33;;;1.17;;
21754;SDS011;11039;50.028;19.938;2022-12-13T09:59:16;1.98;;;1.23;;
21754;SDS011;11039;50.028;19.938;2022-12-13T10:01:43;1.50;;;1.30;;
21754;SDS011;11039;50.028;19.938;2022-12-13T10:04:10;1.27;;;1.00;;
21754;SDS011;11039;50.028;19.938;2022-12-13T10:06:37;1.13;;;0.98;;
21754;SDS011;11039;50.028;19.938;2022-12-13T10:09:03;1.77;;;0.95;;
21754;SDS011;11039;50.028;19.938;2022-12-13T10:11:32;1.45;;;1.00;;
21754;SDS011;11039;50.028;19.938;2022-12-13T10:18:57;1.10;;;0.90;;
21754;SDS011;11039;50.028;19.938;2022-12-13T10:23:52;1.50;;;0.95;;
21754;SDS011;11039;50.028;19.938;2022-12-13T10:26:18;1.83;;;0.90;;
21754;SDS011;11039;50.028;19.938;2022-12-13T10:28:44;2.08;;;1.00;;
21754;SDS011;11039;50.028;19.938;2022-12-13T10:31:17;2.40;;;1.00;;
21754;SDS011;11039;50.028;19.938;2022-12-13T10:33:49;1.17;;;0.93;;
21754;SDS011;11039;50.028;19.938;2022-12-13T10:36:29;1.90;;;1.17;;
21754;SDS011;11039;50.028;19.938;2022-12-13T10:38:56;1.58;;;1.10;;
21754;SDS011;11039;50.028;19.938;2022-12-13T10:41:28;1.52;;;1.20;;
21754;SDS011;11039;50.028;19.938;2022-12-13T10:46:39;1.65;;;1.00;;
21754;SDS011;11039;50.028;19.938;2022-12-13T10:50:08;1.20;;;0.90;;
21754;SDS011;11039;50.028;19.938;2022-12-13T10:52:01;1.35;;;0.90;;
21754;SDS011;11039;50.028;19.938;2022-12-13T10:54:28;1.80;;;1.30;;
21754;SDS011;11039;50.028;19.938;2022-12-13T10:56:54;1.52;;;1.10;;
21754;SDS011;11039;50.028;19.938;2022-12-13T10:59:32;1.55;;;1.20;;
21754;SDS011;11039;50.028;19.938;2022-12-13T11:01:58;1.35;;;1.08;;
21754;SDS011;11039;50.028;19.938;2022-12-13T11:04:29;1.35;;;1.00;;
21754;SDS011;11039;50.028;19.938;2022-12-13T11:06:56;1.33;;;0.90;;
21754;SDS011;11039;50.028;19.938;2022-12-13T11:11:52;1.88;;;1.10;;
21754;SDS011;11039;50.028;19.938;2022-12-13T11:14:19;1.77;;;1.15;;
21754;SDS011;11039;50.028;19.938;2022-12-13T11:16:50;1.33;;;1.10;;
21754;SDS011;11039;50.028;19.938;2022-12-13T11:19:21;2.05;;;1.10;;
21754;SDS011;11039;50.028;19.938;2022-12-13T11:21:48;1.30;;;1.17;;
21754;SDS011;11039;50.028;19.938;2022-12-13T11:24:34;1.15;;;0.88;;
21754;SDS011;11039;50.028;19.938;2022-12-13T11:27:13;1.92;;;1.20;;
21754;SDS011;11039;50.028;19.938;2022-12-13T11:29:45;1.80;;;1.10;;
21754;SDS011;11039;50.028;19.938;2022-12-13T11:35:12;1.90;;;1.10;;
21754;SDS011;11039;50.028;19.938;2022-12-13T11:45:38;1.65;;;1.20;;
21754;SDS011;11039;50.028;19.938;2022-12-13T11:50:39;2.53;;;1.30;;
21754;SDS011;11039;50.028;19.938;2022-12-13T11:55:43;2.20;;;1.50;;
21754;SDS011;11039;50.028;19.938;2022-12-13T11:58:13;1.90;;;1.20;;
21754;SDS011;11039;50.028;19.938;2022-12-13T12:00:43;1.40;;;0.85;;
21754;SDS011;11039;50.028;19.938;2022-12-13T12:03:20;2.63;;;1.30;;
21754;SDS011;11039;50.028;19.938;2022-12-13T12:05:48;1.70;;;1.25;;
21754;SDS011;11039;50.028;19.938;2022-12-13T12:08:27;1.60;;;1.20;;
21754;SDS011;11039;50.028;19.938;2022-12-13T12:11:18;3.65;;;1.40;;
21754;SDS011;11039;50.028;19.938;2022-12-13T12:14:03;1.75;;;1.02;;
21754;SDS011;11039;50.028;19.938;2022-12-13T12:16:43;1.42;;;1.08;;
21754;SDS011;11039;50.028;19.938;2022-12-13T12:19:12;1.95;;;1.23;;
21754;SDS011;11039;50.028;19.938;2022-12-13T12:29:51;1.65;;;1.40;;
21754;SDS011;11039;50.028;19.938;2022-12-13T12:58:30;7.45;;;5.97;;
21754;SDS011;11039;50.028;19.938;2022-12-13T13:03:28;8.63;;;6.32;;
21754;SDS011;11039;50.028;19.938;2022-12-13T13:05:57;7.60;;;6.80;;
21754;SDS011;11039;50.028;19.938;2022-12-13T13:10:51;8.75;;;6.13;;
21754;SDS011;11039;50.028;19.938;2022-12-13T13:16:03;9.23;;;6.95;;
21754;SDS011;11039;50.028;19.938;2022-12-13T13:18:51;5.22;;;3.78;;
21754;SDS011;11039;50.028;19.938;2022-12-13T13:24:09;2.67;;;1.80;;
21754;SDS011;11039;50.028;19.938;2022-12-13T13:26:38;3.30;;;2.17;;
21754;SDS011;11039;50.028;19.938;2022-12-13T13:32:02;4.03;;;2.40;;
21754;SDS011;11039;50.028;19.938;2022-12-13T13:36:58;4.22;;;2.67;;
21754;SDS011;11039;50.028;19.938;2022-12-13T13:47:14;3.50;;;2.38;;
21754;SDS011;11039;50.028;19.938;2022-12-13T13:52:20;3.28;;;2.10;;
21754;SDS011;11039;50.028;19.938;2022-12-13T14:00:22;2.13;;;1.63;;
21754;SDS011;11039;50.028;19.938;2022-12-13T14:08:17;2.85;;;1.85;;
21754;SDS011;11039;50.028;19.938;2022-12-13T14:13:41;2.80;;;1.70;;
21754;SDS011;11039;50.028;19.938;2022-12-13T14:21:27;2.55;;;1.60;;
21754;SDS011;11039;50.028;19.938;2022-12-13T14:26:26;2.58;;;1.65;;
21754;SDS011;11039;50.028;19.938;2022-12-13T14:28:55;2.60;;;1.40;;
21754;SDS011;11039;50.028;19.938;2022-12-13T14:31:24;1.92;;;1.50;;
21754;SDS011;11039;50.028;19.938;2022-12-13T14:33:51;2.13;;;1.52;;
21754;SDS011;11039;50.028;19.938;2022-12-13T14:36:24;2.45;;;1.80;;
21754;SDS011;11039;50.028;19.938;2022-12-13T14:38:57;2.42;;;1.77;;
21754;SDS011;11039;50.028;19.938;2022-12-13T14:41:23;1.73;;;1.48;;
21754;SDS011;11039;50.028;19.938;2022-12-13T14:43:49;2.63;;;1.63;;
21754;SDS011;11039;50.028;19.938;2022-12-13T14:46:15;2.90;;;1.60;;
21754;SDS011;11039;50.028;19.938;2022-12-13T14:48:49;2.15;;;1.60;;
21754;SDS011;11039;50.028;19.938;2022-12-13T14:53:54;1.98;;;1.45;;
21754;SDS011;11039;50.028;19.938;2022-12-13T14:56:20;2.42;;;1.80;;
21754;SDS011;11039;50.028;19.938;2022-12-13T14:58:53;2.63;;;1.90;;
21754;SDS011;11039;50.028;19.938;2022-12-13T15:01:38;2.55;;;1.88;;
21754;SDS011;11039;50.028;19.938;2022-12-13T15:07:07;2.47;;;1.70;;
21754;SDS011;11039;50.028;19.938;2022-12-13T15:09:35;2.15;;;1.70;;
21754;SDS011;11039;50.028;19.938;2022-12-13T15:12:01;2.63;;;1.83;;
21754;SDS011;11039;50.028;19.938;2022-12-13T15:14:33;2.63;;;2.00;;
21754;SDS011;11039;50.028;19.938;2022-12-13T15:17:00;2.50;;;1.60;;
21754;SDS011;11039;50.028;19.938;2022-12-13T15:19:26;2.63;;;1.83;;
21754;SDS011;11039;50.028;19.938;2022-12-13T15:22:00;2.20;;;1.95;;
21754;SDS011;11039;50.028;19.938;2022-12-13T15:24:28;3.15;;;1.90;;
21754;SDS011;11039;50.028;19.938;2022-12-13T15:26:56;3.03;;;2.00;;
21754;SDS011;11039;50.028;19.938;2022-12-13T15:29:23;2.75;;;1.40;;
21754;SDS011;11039;50.028;19.938;2022-12-13T15:31:50;1.73;;;1.60;;
21754;SDS011;11039;50.028;19.938;2022-12-13T15:36:54;3.15;;;1.85;;
21754;SDS011;11039;50.028;19.938;2022-12-13T15:39:21;2.13;;;1.50;;
21754;SDS011;11039;50.028;19.938;2022-12-13T15:41:48;2.72;;;1.95;;
21754;SDS011;11039;50.028;19.938;2022-12-13T15:44:16;2.30;;;1.85;;
21754;SDS011;11039;50.028;19.938;2022-12-13T15:46:44;2.22;;;1.70;;
21754;SDS011;11039;50.028;19.938;2022-12-13T15:49:24;2.58;;;1.90;;
21754;SDS011;11039;50.028;19.938;2022-12-13T15:51:52;2.38;;;1.67;;
21754;SDS011;11039;50.028;19.938;2022-12-13T15:54:19;2.15;;;1.80;;
21754;SDS011;11039;50.028;19.938;2022-12-13T15:59:24;2.97;;;2.25;;
21754;SDS011;11039;50.028;19.938;2022-12-13T16:01:50;2.33;;;1.92;;
21754;SDS011;11039;50.028;19.938;2022-12-13T16:04:22;2.55;;;1.70;;
21754;SDS011;11039;50.028;19.938;2022-12-13T16:06:49;2.85;;;1.98;;
21754;SDS011;11039;50.028;19.938;2022-12-13T16:09:19;2.13;;;1.50;;
21754;SDS011;11039;50.028;19.938;2022-12-13T16:11:56;2.75;;;1.65;;
21754;SDS011;11039;50.028;19.938;2022-12-13T16:19:51;2.95;;;2.10;;
21754;SDS011;11039;50.028;19.938;2022-12-13T16:22:17;3.78;;;2.30;;
21754;SDS011;11039;50.028;19.938;2022-12-13T16:24:46;2.92;;;2.00;;
21754;SDS011;11039;50.028;19.938;2022-12-13T16:27:12;2.95;;;2.00;;
21754;SDS011;11039;50.028;19.938;2022-12-13T16:29:38;3.42;;;1.95;;
21754;SDS011;11039;50.028;19.938;2022-12-13T16:32:04;3.70;;;2.40;;
21754;SDS011;11039;50.028;19.938;2022-12-13T16:34:30;3.35;;;2.20;;
21754;SDS011;11039;50.028;19.938;2022-12-13T16:36:56;3.35;;;2.35;;
21754;SDS011;11039;50.028;19.938;2022-12-13T16:39:25;2.88;;;2.10;;
21754;SDS011;11039;50.028;19.938;2022-12-13T16:41:51;4.30;;;2.22;;
21754;SDS011;11039;50.028;19.938;2022-12-13T16:44:22;4.03;;;2.47;;
21754;SDS011;11039;50.028;19.938;2022-12-13T16:46:51;3.40;;;2.30;;
21754;SDS011;11039;50.028;19.938;2022-12-13T16:49:24;4.68;;;2.60;;
21754;SDS011;11039;50.028;19.938;2022-12-13T16:51:50;3.58;;;2.13;;
21754;SDS011;11039;50.028;19.938;2022-12-13T16:54:17;2.78;;;2.05;;
21754;SDS011;11039;50.028;19.938;2022-12-13T16:56:43;3.83;;;1.95;;
21754;SDS011;11039;50.028;19.938;2022-12-13T16:59:11;3.05;;;2.22;;
21754;SDS011;11039;50.028;19.938;2022-12-13T17:01:38;3.60;;;2.42;;